Time;durP1;ratioP1;P1;durP2;ratioP2;P2;SDS_P1;SDS_P2;PMS_P1;PMS_P2;Temp;Humidity;BMP_temperature;BMP_pressure;BME280_temperature;BME280_humidity;BME280_pressure;Samples;Min_cycle;Max_cycle;Signal;HPM_P1;HPM_P2
2021/05/20 00:01:09;;;;;;;39.43;25.87;;;;;;;;;;5061300;28;20197;-70
2021/05/20 00:03:35;;;;;;;36.63;25.30;;;;;;;;;;5058163;28;22071;-71
2021/05/20 00:06:00;;;;;;;41.43;27.03;;;;;;;;;;5063082;28;20208;-71
2021/05/20 00:08:25;;;;;;;39.30;26.97;;;;;;;;;;5061060;28;20209;-72
2021/05/20 00:10:50;;;;;;;45.60;28.07;;;;;;;;;;5060495;28;20165;-70
2021/05/20 00:13:16;;;;;;;40.80;27.80;;;;;;;;;;5060444;28;20188;-71
2021/05/20 00:15:41;;;;;;;40.80;27.60;;;;;;;;;;5062061;28;20180;-71
2021/05/20 00:18:06;;;;;;;37.27;25.67;;;;;;;;;;5062352;28;20291;-73
2021/05/20 00:20:31;;;;;;;36.73;26.47;;;;;;;;;;5065252;28;20233;-70
2021/05/20 00:22:56;;;;;;;43.40;28.30;;;;;;;;;;5056501;28;20193;-71
2021/05/20 00:25:22;;;;;;;40.43;28.30;;;;;;;;;;5061701;28;20265;-71
2021/05/20 00:27:47;;;;;;;40.50;26.63;;;;;;;;;;5061820;28;20621;-71
2021/05/20 00:30:12;;;;;;;40.87;27.10;;;;;;;;;;5066232;28;20257;-71
2021/05/20 00:32:38;;;;;;;44.33;28.03;;;;;;;;;;5057406;28;20194;-70
2021/05/20 00:35:04;;;;;;;41.93;27.30;;;;;;;;;;5064228;28;20174;-71
2021/05/20 00:37:29;;;;;;;33.90;23.07;;;;;;;;;;5059391;28;20216;-71
2021/05/20 00:39:54;;;;;;;26.33;18.80;;;;;;;;;;5056716;28;20276;-70
2021/05/20 00:42:20;;;;;;;18.37;14.87;;;;;;;;;;5060158;28;20195;-71
2021/05/20 00:45:04;;;;;;;18.50;13.93;;;;;;;;;;5056774;28;20234;-71
2021/05/20 00:47:31;;;;;;;17.73;14.10;;;;;;;;;;5059963;28;20215;-71
2021/05/20 00:49:57;;;;;;;22.27;14.87;;;;;;;;;;5059437;28;20185;-72
2021/05/20 00:52:22;;;;;;;20.67;15.13;;;;;;;;;;5055827;28;20562;-71
2021/05/20 00:54:51;;;;;;;35.37;15.90;;;;;;;;;;5057404;28;20177;-71
2021/05/20 00:57:17;;;;;;;32.07;15.80;;;;;;;;;;5061001;28;20570;-71
2021/05/20 00:59:43;;;;;;;33.60;15.00;;;;;;;;;;5064009;28;20180;-71
2021/05/20 01:02:12;;;;;;;22.77;14.87;;;;;;;;;;5064819;28;20209;-70
2021/05/20 01:04:37;;;;;;;25.20;16.10;;;;;;;;;;5063758;28;20209;-71
2021/05/20 01:07:02;;;;;;;63.63;19.33;;;;;;;;;;5054710;28;20270;-71
2021/05/20 01:09:27;;;;;;;28.13;18.03;;;;;;;;;;5058610;28;20181;-71
2021/05/20 01:11:53;;;;;;;103.90;24.77;;;;;;;;;;5060642;28;20871;-71
2021/05/20 01:14:18;;;;;;;45.60;19.93;;;;;;;;;;5065233;28;20628;-71
2021/05/20 01:16:46;;;;;;;123.13;27.83;;;;;;;;;;5068556;28;20184;-71
2021/05/20 01:19:11;;;;;;;146.17;30.30;;;;;;;;;;5068826;28;20572;-71
2021/05/20 01:21:36;;;;;;;103.27;28.30;;;;;;;;;;5071567;28;20175;-71
2021/05/20 01:24:01;;;;;;;195.90;30.40;;;;;;;;;;5062782;28;20174;-71
2021/05/20 01:26:29;;;;;;;184.87;30.20;;;;;;;;;;5070307;28;20231;-71
2021/05/20 01:28:54;;;;;;;132.40;25.87;;;;;;;;;;5064645;28;20173;-71
2021/05/20 01:31:19;;;;;;;225.43;33.77;;;;;;;;;;5068910;28;20531;-71
2021/05/20 01:33:44;;;;;;;77.33;24.87;;;;;;;;;;5064934;28;20235;-71
2021/05/20 01:36:09;;;;;;;216.70;31.50;;;;;;;;;;5064734;28;20177;-71
2021/05/20 01:41:04;;;;;;;96.20;25.87;;;;;;;;;;5055925;28;20308;-70
2021/05/20 01:43:31;;;;;;;128.30;27.60;;;;;;;;;;5066076;28;20749;-71
2021/05/20 01:46:02;;;;;;;109.40;28.57;;;;;;;;;;5063553;28;20304;-72
2021/05/20 01:48:28;;;;;;;78.23;26.20;;;;;;;;;;5057994;28;20253;-70
2021/05/20 01:50:59;;;;;;;85.80;25.67;;;;;;;;;;5064522;28;20177;-71
2021/05/20 01:53:24;;;;;;;63.13;23.97;;;;;;;;;;5058852;28;20239;-71
2021/05/20 01:55:49;;;;;;;63.57;24.73;;;;;;;;;;5062225;28;20178;-71
2021/05/20 01:58:15;;;;;;;74.03;25.10;;;;;;;;;;5065377;28;20180;-71
2021/05/20 02:00:40;;;;;;;146.43;27.97;;;;;;;;;;5061591;28;20182;-71
2021/05/20 02:03:05;;;;;;;84.93;25.80;;;;;;;;;;5064896;28;20201;-71
2021/05/20 02:05:30;;;;;;;194.77;31.90;;;;;;;;;;5055312;28;20200;-70
2021/05/20 02:07:55;;;;;;;186.00;30.60;;;;;;;;;;5056443;28;20264;-71
2021/05/20 02:10:21;;;;;;;86.53;24.50;;;;;;;;;;5059109;28;20545;-71
2021/05/20 02:12:46;;;;;;;135.27;26.73;;;;;;;;;;5057146;28;20571;-70
2021/05/20 02:15:11;;;;;;;163.80;30.30;;;;;;;;;;5061560;28;20554;-71
2021/05/20 02:17:36;;;;;;;141.90;28.40;;;;;;;;;;5069033;28;20189;-71
2021/05/20 02:20:08;;;;;;;172.23;31.30;;;;;;;;;;5064240;28;21670;-70
2021/05/20 02:22:34;;;;;;;109.20;26.60;;;;;;;;;;5064728;28;20690;-71
2021/05/20 02:24:59;;;;;;;82.70;22.87;;;;;;;;;;5065547;28;20192;-71
2021/05/20 02:27:24;;;;;;;69.27;23.90;;;;;;;;;;5073308;28;20215;-71
2021/05/20 02:29:49;;;;;;;68.70;24.30;;;;;;;;;;5073609;28;20237;-71
2021/05/20 02:32:14;;;;;;;43.77;23.90;;;;;;;;;;5063175;28;20197;-71
2021/05/20 02:34:40;;;;;;;57.60;22.63;;;;;;;;;;5068931;28;20222;-71
2021/05/20 02:37:05;;;;;;;71.63;25.03;;;;;;;;;;5066444;28;20241;-70
2021/05/20 02:39:30;;;;;;;275.87;39.83;;;;;;;;;;5065970;28;20662;-70
2021/05/20 02:41:55;;;;;;;162.37;34.13;;;;;;;;;;5063339;28;20743;-71
2021/05/20 02:44:20;;;;;;;53.93;26.53;;;;;;;;;;5064360;28;20176;-71
2021/05/20 02:46:45;;;;;;;132.13;29.40;;;;;;;;;;5063611;28;20689;-71
2021/05/20 02:49:11;;;;;;;152.60;33.70;;;;;;;;;;5066027;28;20182;-71
2021/05/20 02:51:36;;;;;;;128.33;28.70;;;;;;;;;;5067310;28;20542;-71
2021/05/20 02:54:01;;;;;;;275.43;40.47;;;;;;;;;;5062105;28;20197;-69
2021/05/20 02:56:26;;;;;;;97.63;26.40;;;;;;;;;;5069489;28;20173;-72
2021/05/20 02:58:52;;;;;;;56.93;26.80;;;;;;;;;;5060741;28;20173;-70
2021/05/20 03:01:21;;;;;;;115.77;30.00;;;;;;;;;;5066708;28;20177;-71
2021/05/20 03:03:46;;;;;;;110.37;30.40;;;;;;;;;;5068365;28;20200;-71
2021/05/20 03:06:12;;;;;;;224.07;34.33;;;;;;;;;;5063191;28;20193;-72
2021/05/20 03:08:37;;;;;;;127.43;32.17;;;;;;;;;;5063919;28;20177;-71
2021/05/20 03:11:02;;;;;;;207.47;34.53;;;;;;;;;;5070158;28;20184;-71
2021/05/20 03:13:27;;;;;;;134.47;30.50;;;;;;;;;;5065601;28;20304;-70
2021/05/20 03:15:52;;;;;;;150.90;34.60;;;;;;;;;;5068034;28;20165;-71
2021/05/20 03:18:17;;;;;;;75.73;29.53;;;;;;;;;;5069968;28;20184;-71
2021/05/20 03:20:43;;;;;;;199.90;35.03;;;;;;;;;;5059992;28;20177;-71
2021/05/20 03:23:08;;;;;;;141.43;32.53;;;;;;;;;;5069984;28;20215;-71
2021/05/20 03:25:36;;;;;;;73.93;30.90;;;;;;;;;;5066236;28;20189;-71
2021/05/20 03:28:01;;;;;;;70.17;30.47;;;;;;;;;;5069714;28;20227;-71
2021/05/20 03:30:26;;;;;;;139.00;35.27;;;;;;;;;;5071204;28;20158;-71
2021/05/20 03:32:51;;;;;;;190.57;40.93;;;;;;;;;;5056699;28;20200;-71
2021/05/20 03:35:17;;;;;;;98.97;33.20;;;;;;;;;;5069658;28;20177;-71
2021/05/20 03:37:42;;;;;;;197.17;42.23;;;;;;;;;;5068688;28;20220;-71
2021/05/20 03:40:07;;;;;;;199.63;42.27;;;;;;;;;;5061834;28;20558;-71
2021/05/20 03:42:32;;;;;;;137.00;37.23;;;;;;;;;;5059967;28;20207;-71
2021/05/20 03:44:58;;;;;;;137.10;35.83;;;;;;;;;;5060791;28;20204;-70
2021/05/20 03:47:23;;;;;;;117.77;33.77;;;;;;;;;;5068589;28;20241;-71
2021/05/20 03:49:48;;;;;;;65.37;30.47;;;;;;;;;;5060712;28;20278;-70
2021/05/20 03:52:13;;;;;;;320.07;47.33;;;;;;;;;;5064830;28;20224;-71
2021/05/20 03:54:42;;;;;;;139.57;34.83;;;;;;;;;;5066165;28;20226;-71
2021/05/20 03:57:07;;;;;;;293.17;47.20;;;;;;;;;;5060652;28;20170;-71
2021/05/20 03:59:32;;;;;;;262.10;38.10;;;;;;;;;;5065232;28;20650;-71
2021/05/20 04:01:58;;;;;;;296.70;42.20;;;;;;;;;;5061482;28;20671;-71
2021/05/20 04:04:23;;;;;;;84.97;32.30;;;;;;;;;;5063202;28;20185;-71
2021/05/20 04:06:48;;;;;;;242.37;38.53;;;;;;;;;;5061047;28;20201;-71
2021/05/20 04:09:13;;;;;;;256.67;40.03;;;;;;;;;;5062561;28;20170;-71
2021/05/20 04:11:38;;;;;;;172.70;36.63;;;;;;;;;;5059818;28;20182;-71
2021/05/20 04:14:04;;;;;;;213.83;41.37;;;;;;;;;;5060443;28;20261;-70
2021/05/20 04:16:29;;;;;;;119.07;33.50;;;;;;;;;;5064512;28;20182;-69
2021/05/20 04:18:55;;;;;;;91.83;34.33;;;;;;;;;;5065801;28;20169;-73
2021/05/20 04:21:20;;;;;;;222.70;39.40;;;;;;;;;;5065814;28;20589;-70
2021/05/20 04:23:45;;;;;;;108.27;35.47;;;;;;;;;;5064430;28;20198;-70
2021/05/20 04:26:11;;;;;;;90.97;33.20;;;;;;;;;;5063390;28;20205;-70
2021/05/20 04:28:36;;;;;;;104.00;36.63;;;;;;;;;;5067011;28;20177;-72
2021/05/20 04:31:02;;;;;;;352.23;59.33;;;;;;;;;;5060099;28;20182;-71
2021/05/20 04:33:27;;;;;;;114.03;37.60;;;;;;;;;;5058760;28;20197;-72
2021/05/20 04:35:52;;;;;;;73.83;34.03;;;;;;;;;;5062998;28;20188;-71
2021/05/20 04:38:17;;;;;;;63.90;35.67;;;;;;;;;;5064773;28;20201;-72
2021/05/20 04:40:43;;;;;;;101.70;35.23;;;;;;;;;;5060227;28;20220;-70
2021/05/20 04:43:08;;;;;;;51.83;34.60;;;;;;;;;;5057667;28;20228;-71
2021/05/20 04:45:34;;;;;;;63.73;35.03;;;;;;;;;;5057116;28;20180;-71
2021/05/20 04:47:59;;;;;;;59.67;35.30;;;;;;;;;;5060907;28;20251;-71
2021/05/20 04:50:25;;;;;;;104.87;39.47;;;;;;;;;;5062174;28;20268;-72
2021/05/20 04:52:50;;;;;;;72.77;36.67;;;;;;;;;;5059803;28;20223;-71
2021/05/20 04:55:16;;;;;;;226.27;47.87;;;;;;;;;;5059473;28;20541;-72
2021/05/20 04:57:41;;;;;;;332.73;50.80;;;;;;;;;;5061744;28;20178;-71
2021/05/20 05:00:07;;;;;;;76.63;35.97;;;;;;;;;;5062781;28;20192;-70
2021/05/20 05:02:32;;;;;;;237.77;45.43;;;;;;;;;;5057506;28;20209;-71
2021/05/20 05:04:58;;;;;;;52.90;33.37;;;;;;;;;;5063036;28;20189;-72
2021/05/20 05:07:23;;;;;;;104.63;34.57;;;;;;;;;;5058496;28;20213;-71
2021/05/20 05:09:48;;;;;;;145.43;37.23;;;;;;;;;;5062143;28;20170;-72
2021/05/20 05:12:13;;;;;;;65.80;32.30;;;;;;;;;;5062400;28;20229;-72
2021/05/20 05:14:38;;;;;;;73.63;34.43;;;;;;;;;;5059968;28;20195;-71
2021/05/20 05:17:04;;;;;;;257.03;41.30;;;;;;;;;;5055690;28;20188;-71
2021/05/20 05:19:29;;;;;;;102.70;33.70;;;;;;;;;;5064084;28;20235;-71
2021/05/20 05:21:56;;;;;;;105.80;33.20;;;;;;;;;;5059092;28;20577;-71
2021/05/20 05:24:21;;;;;;;177.57;38.43;;;;;;;;;;5056896;28;20801;-71
2021/05/20 05:26:46;;;;;;;200.63;36.77;;;;;;;;;;5058316;28;20197;-71
2021/05/20 05:29:12;;;;;;;115.33;32.03;;;;;;;;;;5061057;28;20216;-71
2021/05/20 05:31:37;;;;;;;78.57;28.13;;;;;;;;;;5057805;28;20170;-71
2021/05/20 05:34:03;;;;;;;279.93;37.63;;;;;;;;;;5062064;28;20180;-71
2021/05/20 05:36:28;;;;;;;131.50;30.33;;;;;;;;;;5055060;28;20722;-72
2021/05/20 05:38:54;;;;;;;144.90;32.37;;;;;;;;;;5061924;28;20177;-71
2021/05/20 05:41:19;;;;;;;310.67;39.07;;;;;;;;;;5057925;28;20211;-71
2021/05/20 05:43:44;;;;;;;176.53;34.00;;;;;;;;;;5054795;28;20193;-71
2021/05/20 05:46:09;;;;;;;59.63;28.33;;;;;;;;;;5057284;28;20327;-72
2021/05/20 05:48:35;;;;;;;93.80;29.63;;;;;;;;;;5058738;28;20674;-72
2021/05/20 05:51:01;;;;;;;76.80;27.20;;;;;;;;;;5060503;28;20197;-72
2021/05/20 05:53:26;;;;;;;95.17;26.13;;;;;;;;;;5059560;28;20272;-72
2021/05/20 05:55:52;;;;;;;102.47;27.23;;;;;;;;;;5065800;28;20252;-72
2021/05/20 05:58:17;;;;;;;159.87;28.40;;;;;;;;;;5062933;28;20177;-72
2021/05/20 06:00:42;;;;;;;158.00;28.73;;;;;;;;;;5066752;28;20897;-71
2021/05/20 06:03:08;;;;;;;76.97;26.67;;;;;;;;;;5069576;28;20574;-72
2021/05/20 06:05:33;;;;;;;117.57;26.37;;;;;;;;;;5064859;28;20177;-71
2021/05/20 06:07:58;;;;;;;94.30;26.17;;;;;;;;;;5072878;28;20205;-70
2021/05/20 06:10:23;;;;;;;109.23;26.27;;;;;;;;;;5070981;28;20169;-71
2021/05/20 06:12:49;;;;;;;127.07;24.23;;;;;;;;;;5074202;28;20200;-71
2021/05/20 06:15:14;;;;;;;88.33;22.87;;;;;;;;;;5061549;28;20268;-71
2021/05/20 06:17:39;;;;;;;129.93;24.83;;;;;;;;;;5062363;28;20177;-71
2021/05/20 06:20:05;;;;;;;35.43;20.33;;;;;;;;;;5069698;28;20176;-72
2021/05/20 06:22:31;;;;;;;131.50;25.00;;;;;;;;;;5065768;28;20204;-72
2021/05/20 06:24:56;;;;;;;76.50;24.30;;;;;;;;;;5067544;28;20170;-72
2021/05/20 06:27:25;;;;;;;116.83;25.50;;;;;;;;;;5068732;28;20201;-71
2021/05/20 06:29:51;;;;;;;103.47;25.63;;;;;;;;;;5058438;28;20181;-72
2021/05/20 06:32:16;;;;;;;54.60;24.30;;;;;;;;;;5058249;28;20205;-72
2021/05/20 06:34:41;;;;;;;67.70;24.70;;;;;;;;;;5064349;28;20208;-71
2021/05/20 06:37:06;;;;;;;55.53;25.10;;;;;;;;;;5059441;28;20212;-71
2021/05/20 06:39:31;;;;;;;40.77;25.03;;;;;;;;;;5064405;28;20200;-71
2021/05/20 06:41:57;;;;;;;58.93;30.63;;;;;;;;;;5060115;28;20238;-70
2021/05/20 06:44:22;;;;;;;47.97;28.03;;;;;;;;;;5060481;28;20239;-72
2021/05/20 06:46:47;;;;;;;57.60;28.93;;;;;;;;;;5066147;28;20199;-71
2021/05/20 06:49:13;;;;;;;44.77;30.23;;;;;;;;;;5056814;28;20204;-71
2021/05/20 06:51:38;;;;;;;41.27;29.33;;;;;;;;;;5062368;28;20174;-70
2021/05/20 06:54:03;;;;;;;55.73;31.00;;;;;;;;;;5064500;28;20682;-71
2021/05/20 06:56:30;;;;;;;54.97;32.13;;;;;;;;;;5058079;28;20177;-71
2021/05/20 07:01:45;;;;;;;48.83;35.93;;;;;;;;;;5052299;28;20265;-71
2021/05/20 07:04:10;;;;;;;53.50;37.90;;;;;;;;;;5058580;28;20561;-70
2021/05/20 07:06:35;;;;;;;51.90;38.67;;;;;;;;;;5060114;28;20199;-70
2021/05/20 07:09:00;;;;;;;61.67;42.87;;;;;;;;;;5051683;28;20556;-71
2021/05/20 07:11:29;;;;;;;64.33;45.57;;;;;;;;;;5065828;28;20204;-71
2021/05/20 07:13:54;;;;;;;59.20;42.60;;;;;;;;;;5063532;28;22092;-71
2021/05/20 07:16:19;;;;;;;59.05;43.08;;;;;;;;;;5063494;28;20176;-70
2021/05/20 07:18:44;;;;;;;55.83;42.53;;;;;;;;;;5065218;28;20181;-70
2021/05/20 07:21:10;;;;;;;59.63;43.20;;;;;;;;;;5062987;28;20204;-71
2021/05/20 07:23:35;;;;;;;53.78;42.10;;;;;;;;;;5064541;28;20202;-71
2021/05/20 07:26:00;;;;;;;48.70;40.03;;;;;;;;;;5061519;28;20181;-71
2021/05/20 07:28:25;;;;;;;49.65;40.90;;;;;;;;;;5059073;28;20232;-72
2021/05/20 07:30:50;;;;;;;51.10;41.38;;;;;;;;;;5061529;28;20215;-71
2021/05/20 07:33:16;;;;;;;48.92;40.20;;;;;;;;;;5065309;28;20587;-71
2021/05/20 07:35:41;;;;;;;44.90;37.40;;;;;;;;;;5062252;28;20225;-70
2021/05/20 07:38:06;;;;;;;42.05;35.20;;;;;;;;;;5054690;28;20197;-71
2021/05/20 07:40:31;;;;;;;43.03;36.88;;;;;;;;;;5059296;28;20189;-71
2021/05/20 07:42:57;;;;;;;41.55;35.35;;;;;;;;;;5060730;28;20240;-71
2021/05/20 07:45:22;;;;;;;38.80;34.40;;;;;;;;;;5063872;28;20176;-71
2021/05/20 07:47:48;;;;;;;38.70;34.53;;;;;;;;;;5067915;28;20298;-70
2021/05/20 07:50:14;;;;;;;42.85;36.20;;;;;;;;;;5068327;28;20185;-71
2021/05/20 07:52:39;;;;;;;39.17;34.75;;;;;;;;;;5063786;28;20186;-71
2021/05/20 07:55:04;;;;;;;37.33;33.28;;;;;;;;;;5060344;28;20173;-71
2021/05/20 07:57:30;;;;;;;37.80;33.60;;;;;;;;;;5065979;28;20285;-69
2021/05/20 07:59:55;;;;;;;34.58;29.42;;;;;;;;;;5057075;28;20559;-71
2021/05/20 08:04:56;;;;;;;28.05;25.05;;;;;;;;;;5059255;28;20676;-71
2021/05/20 08:10:03;;;;;;;26.88;22.50;;;;;;;;;;5065587;28;20650;-69
2021/05/20 08:12:29;;;;;;;26.17;23.38;;;;;;;;;;5059075;28;20197;-69
2021/05/20 08:14:54;;;;;;;24.05;20.27;;;;;;;;;;5056090;28;20742;-71
2021/05/20 08:17:19;;;;;;;23.83;21.30;;;;;;;;;;5063164;28;20272;-69
2021/05/20 08:19:44;;;;;;;22.02;19.27;;;;;;;;;;5068511;28;20456;-70
2021/05/20 08:22:10;;;;;;;18.80;16.83;;;;;;;;;;5065487;28;20327;-70
2021/05/20 08:24:35;;;;;;;18.17;16.23;;;;;;;;;;5055454;28;20461;-70
2021/05/20 08:27:00;;;;;;;19.93;16.83;;;;;;;;;;5058768;28;20220;-68
2021/05/20 08:29:27;;;;;;;17.60;15.80;;;;;;;;;;5053848;28;20464;-70
2021/05/20 08:31:53;;;;;;;17.77;15.95;;;;;;;;;;5055547;28;20419;-70
2021/05/20 08:34:18;;;;;;;19.08;17.08;;;;;;;;;;5066044;28;20231;-70
2021/05/20 08:36:43;;;;;;;18.97;17.07;;;;;;;;;;5053950;28;20196;-70
2021/05/20 08:39:08;;;;;;;17.65;15.88;;;;;;;;;;5061879;28;20461;-70
2021/05/20 08:41:34;;;;;;;15.90;14.35;;;;;;;;;;5058915;28;20216;-69
2021/05/20 08:44:06;;;;;;;15.70;14.05;;;;;;;;;;5065254;28;20177;-69
2021/05/20 08:46:31;;;;;;;13.82;12.52;;;;;;;;;;5057698;28;20201;-70
2021/05/20 08:48:57;;;;;;;16.93;14.00;;;;;;;;;;5060253;28;20166;-70
2021/05/20 08:51:22;;;;;;;18.00;14.63;;;;;;;;;;5052799;28;20427;-70
2021/05/20 08:53:48;;;;;;;18.13;15.00;;;;;;;;;;5063800;28;20260;-68
2021/05/20 08:56:13;;;;;;;17.73;15.45;;;;;;;;;;5056305;28;21111;-69
2021/05/20 08:58:38;;;;;;;19.40;14.98;;;;;;;;;;5059430;28;20176;-69
2021/05/20 09:01:03;;;;;;;16.92;15.13;;;;;;;;;;5061537;28;20651;-69
2021/05/20 09:03:29;;;;;;;15.90;14.20;;;;;;;;;;5054974;28;20208;-70
2021/05/20 09:05:57;;;;;;;16.35;14.65;;;;;;;;;;5061127;28;20184;-73
2021/05/20 09:08:30;;;;;;;15.52;13.93;;;;;;;;;;5067623;28;20209;-69
2021/05/20 09:10:55;;;;;;;16.50;14.77;;;;;;;;;;5054651;28;20178;-68
2021/05/20 09:13:21;;;;;;;17.23;15.45;;;;;;;;;;5053739;28;20653;-69
2021/05/20 09:15:50;;;;;;;17.38;15.60;;;;;;;;;;5057870;28;20186;-69
2021/05/20 09:18:16;;;;;;;20.30;17.33;;;;;;;;;;5056742;28;20221;-69
2021/05/20 09:20:45;;;;;;;20.30;17.10;;;;;;;;;;5057169;28;20185;-69
2021/05/20 09:23:12;;;;;;;21.38;19.20;;;;;;;;;;5058755;28;20358;-70
2021/05/20 09:25:38;;;;;;;23.58;20.02;;;;;;;;;;5057282;28;20173;-70
2021/05/20 09:28:04;;;;;;;24.48;20.58;;;;;;;;;;5057012;28;20205;-70
2021/05/20 09:30:30;;;;;;;22.85;20.38;;;;;;;;;;5067405;28;20177;-69
2021/05/20 09:32:58;;;;;;;20.90;18.70;;;;;;;;;;5057626;28;20243;-69
2021/05/20 09:35:27;;;;;;;20.45;18.25;;;;;;;;;;5066297;28;20165;-68
2021/05/20 09:37:57;;;;;;;21.40;19.10;;;;;;;;;;5059174;28;20418;-69
2021/05/20 09:40:27;;;;;;;21.92;19.73;;;;;;;;;;5065761;28;20200;-68
2021/05/20 09:42:52;;;;;;;19.10;17.13;;;;;;;;;;5062894;28;20192;-69
2021/05/20 09:45:19;;;;;;;18.77;16.77;;;;;;;;;;5069127;28;20181;-69
2021/05/20 09:47:44;;;;;;;19.55;17.55;;;;;;;;;;5068940;28;20197;-68
2021/05/20 09:50:12;;;;;;;19.88;17.83;;;;;;;;;;5065106;28;20318;-69
2021/05/20 09:52:37;;;;;;;21.60;19.27;;;;;;;;;;5067838;28;20270;-68
2021/05/20 09:55:15;;;;;;;20.75;18.58;;;;;;;;;;5058237;28;20224;-69
2021/05/20 09:57:40;;;;;;;20.20;16.98;;;;;;;;;;5063851;28;20188;-69
2021/05/20 10:00:05;;;;;;;18.03;16.13;;;;;;;;;;5068228;28;20172;-68
2021/05/20 10:02:31;;;;;;;17.33;15.73;;;;;;;;;;5064818;28;20443;-69
2021/05/20 10:04:57;;;;;;;17.55;15.82;;;;;;;;;;5064164;28;20658;-69
2021/05/20 10:07:26;;;;;;;17.88;15.75;;;;;;;;;;5062549;28;20266;-70
2021/05/20 10:09:51;;;;;;;19.63;17.55;;;;;;;;;;5064269;28;20185;-70
2021/05/20 10:12:16;;;;;;;19.40;17.50;;;;;;;;;;5064744;28;20197;-70
2021/05/20 10:14:42;;;;;;;17.60;15.82;;;;;;;;;;5063847;28;20173;-70
2021/05/20 10:17:07;;;;;;;16.70;14.73;;;;;;;;;;5059879;28;20256;-70
2021/05/20 10:19:32;;;;;;;17.42;15.70;;;;;;;;;;5065737;28;20532;-70
2021/05/20 10:21:58;;;;;;;16.70;14.40;;;;;;;;;;5058591;28;20723;-70
2021/05/20 10:24:25;;;;;;;15.68;13.95;;;;;;;;;;5063452;28;20470;-71
2021/05/20 10:26:51;;;;;;;15.23;13.63;;;;;;;;;;5067355;28;20305;-71
2021/05/20 10:29:16;;;;;;;15.93;14.32;;;;;;;;;;5056374;28;20256;-71
2021/05/20 10:31:41;;;;;;;16.30;14.70;;;;;;;;;;5058788;28;20182;-71
2021/05/20 10:34:07;;;;;;;15.88;14.15;;;;;;;;;;5063374;28;20799;-70
2021/05/20 10:36:34;;;;;;;14.98;13.40;;;;;;;;;;5055821;28;20270;-70
2021/05/20 10:39:18;;;;;;;15.10;13.60;;;;;;;;;;5066632;28;20192;-70
2021/05/20 10:41:43;;;;;;;16.83;15.02;;;;;;;;;;5060006;28;20215;-70
2021/05/20 10:44:09;;;;;;;18.73;16.77;;;;;;;;;;5068196;28;20197;-70
2021/05/20 10:46:52;;;;;;;16.33;14.73;;;;;;;;;;5069405;28;20243;-70
2021/05/20 10:49:21;;;;;;;16.40;14.68;;;;;;;;;;5058354;28;20174;-70
2021/05/20 10:51:46;;;;;;;15.38;13.38;;;;;;;;;;5065239;28;20165;-70
2021/05/20 10:54:13;;;;;;;15.03;12.47;;;;;;;;;;5066169;28;20186;-70
2021/05/20 10:56:38;;;;;;;14.63;13.13;;;;;;;;;;5064375;28;20433;-70
2021/05/20 10:59:24;;;;;;;14.88;13.00;;;;;;;;;;5060740;28;20228;-70
2021/05/20 11:01:49;;;;;;;16.10;13.90;;;;;;;;;;5066139;28;20185;-71
2021/05/20 11:04:31;;;;;;;14.13;12.67;;;;;;;;;;5062766;28;20185;-71
2021/05/20 11:06:57;;;;;;;13.85;12.55;;;;;;;;;;5065105;28;20561;-71
2021/05/20 11:09:40;;;;;;;15.20;13.60;;;;;;;;;;5061989;28;20179;-70
2021/05/20 11:12:05;;;;;;;15.23;13.63;;;;;;;;;;5066660;28;20208;-70
2021/05/20 11:14:34;;;;;;;13.75;12.25;;;;;;;;;;5066483;28;20792;-71
2021/05/20 11:16:59;;;;;;;14.73;12.70;;;;;;;;;;5058917;28;20203;-71
2021/05/20 11:19:28;;;;;;;16.47;13.00;;;;;;;;;;5067543;28;20173;-71
2021/05/20 11:24:27;;;;;;;14.45;12.90;;;;;;;;;;5056239;28;20583;-70
2021/05/20 11:26:53;;;;;;;17.02;13.68;;;;;;;;;;5057648;28;20201;-71
2021/05/20 11:29:21;;;;;;;14.82;13.32;;;;;;;;;;5063660;28;20188;-70
2021/05/20 11:31:48;;;;;;;15.63;13.90;;;;;;;;;;5072322;28;20172;-70
2021/05/20 11:36:45;;;;;;;20.95;16.83;;;;;;;;;;5065375;28;20326;-70
2021/05/20 11:39:12;;;;;;;17.38;15.57;;;;;;;;;;5066153;28;20637;-71
2021/05/20 11:41:40;;;;;;;19.35;17.27;;;;;;;;;;5059329;28;20193;-70
2021/05/20 11:44:05;;;;;;;18.20;16.40;;;;;;;;;;5063047;28;20177;-71
2021/05/20 11:46:30;;;;;;;18.73;16.83;;;;;;;;;;5065344;28;20727;-71
2021/05/20 11:48:59;;;;;;;20.67;18.63;;;;;;;;;;5058177;28;20166;-71
2021/05/20 11:51:44;;;;;;;20.85;18.80;;;;;;;;;;5059855;28;20256;-71
2021/05/20 11:54:17;;;;;;;20.23;18.17;;;;;;;;;;5061046;28;20181;-70
2021/05/20 11:56:50;;;;;;;21.45;19.33;;;;;;;;;;5055202;28;20208;-70
2021/05/20 11:59:16;;;;;;;20.73;18.65;;;;;;;;;;5055670;28;20672;-70
2021/05/20 12:01:42;;;;;;;20.70;18.45;;;;;;;;;;5064422;28;20188;-70
2021/05/20 12:04:08;;;;;;;21.15;19.13;;;;;;;;;;5064213;28;20179;-71
2021/05/20 12:06:34;;;;;;;20.67;18.58;;;;;;;;;;5063675;28;20200;-69
2021/05/20 12:09:06;;;;;;;21.50;19.30;;;;;;;;;;5061943;28;20169;-70
2021/05/20 12:11:31;;;;;;;19.70;17.90;;;;;;;;;;5063255;28;20231;-70
2021/05/20 12:13:56;;;;;;;20.45;18.45;;;;;;;;;;5059188;28;20193;-71
2021/05/20 12:16:32;;;;;;;20.88;18.15;;;;;;;;;;5059339;28;22142;-70
2021/05/20 12:18:58;;;;;;;19.85;18.08;;;;;;;;;;5058706;28;20177;-70
2021/05/20 12:21:24;;;;;;;14.20;12.90;;;;;;;;;;5058044;28;20169;-71
2021/05/20 12:23:56;;;;;;;13.30;12.23;;;;;;;;;;5061959;28;20251;-71
2021/05/20 12:26:24;;;;;;;12.07;11.07;;;;;;;;;;5067973;28;20682;-71
2021/05/20 12:28:49;;;;;;;10.55;9.55;;;;;;;;;;5059447;28;20638;-71
2021/05/20 12:31:15;;;;;;;8.85;7.93;;;;;;;;;;5059889;28;20185;-71
2021/05/20 12:33:41;;;;;;;7.85;7.15;;;;;;;;;;5053067;28;20204;-69
2021/05/20 12:36:06;;;;;;;7.50;6.90;;;;;;;;;;5058183;28;20196;-70
2021/05/20 12:38:31;;;;;;;7.43;6.82;;;;;;;;;;5061078;28;20173;-71
2021/05/20 12:40:58;;;;;;;7.68;6.90;;;;;;;;;;5061958;28;20185;-71
2021/05/20 12:43:29;;;;;;;5.93;5.45;;;;;;;;;;5056160;28;20192;-70
2021/05/20 12:46:12;;;;;;;6.32;5.05;;;;;;;;;;5058488;28;20169;-70
2021/05/20 12:48:37;;;;;;;7.38;4.50;;;;;;;;;;5058958;28;20169;-70
2021/05/20 12:51:04;;;;;;;5.47;4.97;;;;;;;;;;5060260;28;20180;-70
2021/05/20 12:53:31;;;;;;;6.35;4.28;;;;;;;;;;5057054;28;20452;-71
2021/05/20 12:55:59;;;;;;;5.05;4.53;;;;;;;;;;5059348;28;20184;-72
2021/05/20 12:58:25;;;;;;;5.40;4.35;;;;;;;;;;5055627;28;20211;-70
2021/05/20 13:00:58;;;;;;;4.95;4.55;;;;;;;;;;5064799;28;20204;-71
2021/05/20 13:03:38;;;;;;;4.40;4.07;;;;;;;;;;5060307;28;20189;-68
2021/05/20 13:06:04;;;;;;;7.53;4.60;;;;;;;;;;5062060;28;20173;-69
2021/05/20 13:08:30;;;;;;;13.10;5.20;;;;;;;;;;5058779;28;20172;-70
2021/05/20 13:10:56;;;;;;;5.68;3.90;;;;;;;;;;5058683;28;20170;-70
2021/05/20 13:13:32;;;;;;;5.53;4.22;;;;;;;;;;5061604;28;20208;-70
2021/05/20 13:16:06;;;;;;;7.30;4.60;;;;;;;;;;5056541;28;20174;-70
2021/05/20 13:23:33;;;;;;;3.65;3.15;;;;;;;;;;5054535;28;20444;-68
2021/05/20 13:25:58;;;;;;;4.70;3.60;;;;;;;;;;5058358;28;20558;-67
2021/05/20 13:28:25;;;;;;;4.80;3.13;;;;;;;;;;5063732;28;20475;-69
2021/05/20 13:30:55;;;;;;;4.20;3.05;;;;;;;;;;5061474;28;20162;-69
2021/05/20 13:33:26;;;;;;;3.63;3.22;;;;;;;;;;5058980;28;20209;-67
2021/05/20 13:35:51;;;;;;;6.18;3.55;;;;;;;;;;5050989;28;20223;-70
2021/05/20 13:38:17;;;;;;;3.53;3.20;;;;;;;;;;5061645;28;20278;-70
2021/05/20 13:40:43;;;;;;;8.20;4.57;;;;;;;;;;5054297;28;20181;-69
2021/05/20 13:43:08;;;;;;;4.00;3.60;;;;;;;;;;5063009;28;20254;-69
2021/05/20 13:45:33;;;;;;;5.37;3.57;;;;;;;;;;5062420;28;20173;-69
2021/05/20 13:47:58;;;;;;;4.50;3.70;;;;;;;;;;5058567;28;20875;-68
2021/05/20 13:50:23;;;;;;;4.80;4.30;;;;;;;;;;5068743;28;20397;-70
2021/05/20 13:52:50;;;;;;;7.57;4.43;;;;;;;;;;5061228;28;20279;-70
2021/05/20 13:55:18;;;;;;;4.63;3.83;;;;;;;;;;5056916;28;20193;-70
2021/05/20 13:57:43;;;;;;;4.97;4.47;;;;;;;;;;5058375;28;20181;-70
2021/05/20 14:00:14;;;;;;;8.10;4.50;;;;;;;;;;5059295;28;20319;-70
2021/05/20 14:02:39;;;;;;;5.43;4.47;;;;;;;;;;5061568;28;20208;-70
2021/05/20 14:05:05;;;;;;;5.15;4.13;;;;;;;;;;5058274;28;20178;-70
2021/05/20 14:07:30;;;;;;;6.13;3.97;;;;;;;;;;5056236;28;20210;-70
2021/05/20 14:09:55;;;;;;;6.28;3.97;;;;;;;;;;5052532;28;20210;-69
2021/05/20 14:12:21;;;;;;;7.45;3.97;;;;;;;;;;5055426;28;20198;-69
2021/05/20 14:14:48;;;;;;;5.18;3.58;;;;;;;;;;5060126;28;20196;-69
2021/05/20 14:17:14;;;;;;;4.40;3.50;;;;;;;;;;5062339;28;20185;-72
2021/05/20 14:19:40;;;;;;;4.43;3.20;;;;;;;;;;5059700;28;20190;-70
2021/05/20 14:22:05;;;;;;;4.15;2.88;;;;;;;;;;5063416;28;20602;-69
2021/05/20 14:24:31;;;;;;;4.55;2.40;;;;;;;;;;5068718;28;20187;-71
2021/05/20 14:26:56;;;;;;;3.35;2.40;;;;;;;;;;5056494;28;20208;-71
2021/05/20 14:29:22;;;;;;;3.60;2.40;;;;;;;;;;5059438;28;20181;-71
2021/05/20 14:31:47;;;;;;;4.07;2.08;;;;;;;;;;5057536;28;20192;-70
2021/05/20 14:34:15;;;;;;;1.98;1.80;;;;;;;;;;5059052;28;20580;-72